createdAt,value
2022-09-27T00:01:51.838Z,99.90
2022-09-27T00:04:20.289Z,99.90
2022-09-27T00:06:48.514Z,99.90
2022-09-27T00:09:17.140Z,99.90
2022-09-27T00:11:45.776Z,99.90
2022-09-27T00:14:16.062Z,99.90
2022-09-27T00:16:45.428Z,99.90
2022-09-27T00:19:16.904Z,99.90
2022-09-27T00:21:46.486Z,99.90
2022-09-27T00:24:15.580Z,99.90
2022-09-27T00:26:44.060Z,99.90
2022-09-27T00:29:12.711Z,99.90
2022-09-27T00:31:41.514Z,99.90
2022-09-27T00:34:15.589Z,99.90
2022-09-27T00:36:45.246Z,99.90
2022-09-27T00:39:13.614Z,99.90
2022-09-27T00:41:42.230Z,99.90
2022-09-27T00:44:43.704Z,99.90
2022-09-27T00:47:15.833Z,99.90
2022-09-27T00:49:48.936Z,99.90
2022-09-27T00:52:22.774Z,99.90
2022-09-27T00:54:56.540Z,99.90
2022-09-27T00:57:25.223Z,99.90
2022-09-27T00:59:59.491Z,99.90
2022-09-27T01:02:28.074Z,99.90
2022-09-27T01:04:58.016Z,99.90
2022-09-27T01:07:27.752Z,99.90
2022-09-27T01:09:56.125Z,99.90
2022-09-27T01:12:31.278Z,99.90
2022-09-27T01:15:09.766Z,99.90
2022-09-27T01:17:48.827Z,99.90
2022-09-27T01:20:45.382Z,99.90
2022-09-27T01:23:35.284Z,99.90
2022-09-27T01:26:15.007Z,99.90
2022-09-27T01:28:57.249Z,99.90
2022-09-27T01:31:35.205Z,99.90
2022-09-27T01:34:08.952Z,99.90
2022-09-27T01:36:47.091Z,99.90
2022-09-27T01:39:34.724Z,99.90
2022-09-27T01:42:13.109Z,99.90
2022-09-27T01:44:48.347Z,99.90
2022-09-27T01:47:21.616Z,99.90
2022-09-27T01:49:56.010Z,99.90
2022-09-27T01:52:31.052Z,99.90
2022-09-27T01:55:02.527Z,99.90
2022-09-27T01:57:36.885Z,99.90
2022-09-27T02:00:08.835Z,99.90
2022-09-27T02:02:44.240Z,99.90
2022-09-27T02:05:17.444Z,99.90
2022-09-27T02:07:52.161Z,99.90
2022-09-27T02:10:25.121Z,99.90
2022-09-27T02:13:02.057Z,99.90
2022-09-27T02:15:39.358Z,99.90
2022-09-27T02:18:18.806Z,99.90
2022-09-27T02:20:52.927Z,99.90
2022-09-27T02:23:26.497Z,99.90
2022-09-27T02:26:00.214Z,99.90
2022-09-27T02:28:34.186Z,99.90
2022-09-27T02:31:03.089Z,99.90
2022-09-27T02:33:38.768Z,99.90
2022-09-27T02:36:07.774Z,99.90
2022-09-27T02:38:36.860Z,99.90
2022-09-27T02:41:05.238Z,99.90
2022-09-27T02:43:35.110Z,99.90
2022-09-27T02:46:18.306Z,99.90
2022-09-27T02:48:59.879Z,99.90
2022-09-27T02:51:43.614Z,99.90
2022-09-27T02:54:19.819Z,99.90
2022-09-27T02:56:57.936Z,99.90
2022-09-27T02:59:34.303Z,99.90
2022-09-27T03:02:13.620Z,99.90
2022-09-27T03:04:49.082Z,99.90
2022-09-27T03:07:18.017Z,99.90
2022-09-27T03:09:48.353Z,99.90
2022-09-27T03:12:20.822Z,99.90
2022-09-27T03:14:49.425Z,99.90
2022-09-27T03:17:17.847Z,99.90
2022-09-27T03:19:47.641Z,99.90
2022-09-27T03:22:15.955Z,99.90
2022-09-27T03:24:44.206Z,99.90
2022-09-27T03:27:13.772Z,99.90
2022-09-27T03:29:41.970Z,99.90
2022-09-27T03:32:10.464Z,99.90
2022-09-27T03:34:38.845Z,99.90
2022-09-27T03:37:08.675Z,99.90
2022-09-27T03:39:37.003Z,99.90
2022-09-27T03:42:05.491Z,99.90
2022-09-27T03:44:33.999Z,99.90
2022-09-27T03:47:02.291Z,99.90
2022-09-27T03:49:30.676Z,99.90
2022-09-27T03:51:59.004Z,99.90
2022-09-27T03:54:28.809Z,99.90
2022-09-27T03:56:57.336Z,99.90
2022-09-27T03:59:25.774Z,99.90
2022-09-27T04:01:54.079Z,99.90
2022-09-27T04:04:22.652Z,99.90
2022-09-27T04:06:50.912Z,99.90
2022-09-27T04:09:19.175Z,99.90
2022-09-27T04:11:49.173Z,99.90
2022-09-27T04:14:17.569Z,99.90
2022-09-27T04:16:45.830Z,99.90
2022-09-27T04:19:14.229Z,99.90
2022-09-27T04:21:42.698Z,99.90
2022-09-27T04:24:12.096Z,99.90
2022-09-27T04:26:41.097Z,99.90
2022-09-27T04:29:11.080Z,99.90
2022-09-27T04:31:39.625Z,99.90
2022-09-27T04:34:07.903Z,99.90
2022-09-27T04:36:35.460Z,99.90
2022-09-27T04:39:07.491Z,99.90
2022-09-27T04:41:36.534Z,99.90
2022-09-27T04:44:06.609Z,99.90
2022-09-27T04:46:37.475Z,99.90
2022-09-27T04:49:05.748Z,99.90
2022-09-27T04:51:34.195Z,99.90
2022-09-27T04:54:03.057Z,99.90
2022-09-27T04:56:31.375Z,99.90
2022-09-27T04:58:59.939Z,99.90
2022-09-27T05:01:28.756Z,99.90
2022-09-27T05:03:58.803Z,99.90
2022-09-27T05:06:27.199Z,99.90
2022-09-27T05:08:55.878Z,99.90
2022-09-27T05:11:24.217Z,99.90
2022-09-27T05:13:52.517Z,99.90
2022-09-27T05:16:21.272Z,99.90
2022-09-27T05:18:49.563Z,99.90
2022-09-27T05:21:19.476Z,99.90
2022-09-27T05:23:48.138Z,99.90
2022-09-27T05:26:16.731Z,99.90
2022-09-27T05:28:47.402Z,99.90
2022-09-27T05:31:16.423Z,99.90
2022-09-27T05:33:44.745Z,99.90
2022-09-27T05:36:12.969Z,99.90
2022-09-27T05:38:43.663Z,99.90
2022-09-27T05:41:12.010Z,99.90
2022-09-27T05:43:40.559Z,99.90
2022-09-27T05:46:09.020Z,99.90
2022-09-27T05:48:38.403Z,99.90
2022-09-27T05:51:07.084Z,99.90
2022-09-27T05:53:35.465Z,99.90
2022-09-27T05:56:06.135Z,99.90
2022-09-27T05:58:34.554Z,99.90
2022-09-27T06:01:02.889Z,99.90
2022-09-27T06:03:31.269Z,99.90
2022-09-27T06:06:05.910Z,99.90
2022-09-27T06:08:35.495Z,99.90
2022-09-27T06:11:06.879Z,99.90
2022-09-27T06:13:36.387Z,99.90
2022-09-27T06:16:05.320Z,99.90
2022-09-27T06:18:33.797Z,99.90
2022-09-27T06:21:02.682Z,99.90
2022-09-27T06:23:32.911Z,99.90
2022-09-27T06:26:05.094Z,99.90
2022-09-27T06:28:36.307Z,99.90
2022-09-27T06:31:08.336Z,99.90
2022-09-27T06:33:37.356Z,99.90
2022-09-27T06:36:07.328Z,99.90
2022-09-27T06:38:36.146Z,99.90
2022-09-27T06:41:06.621Z,99.90
2022-09-27T06:43:37.089Z,99.90
2022-09-27T06:46:06.204Z,99.90
2022-09-27T06:48:37.623Z,99.90
2022-09-27T06:51:06.742Z,99.90
2022-09-27T06:53:35.055Z,99.90
2022-09-27T06:56:04.269Z,99.90
2022-09-27T06:58:49.851Z,99.90
2022-09-27T07:01:20.587Z,99.90
2022-09-27T07:03:51.753Z,99.90
2022-09-27T07:06:23.851Z,99.90
2022-09-27T07:08:53.463Z,99.90
2022-09-27T07:11:23.619Z,99.90
2022-09-27T07:13:52.105Z,99.90
2022-09-27T07:16:21.866Z,99.90
2022-09-27T07:18:51.184Z,99.90
2022-09-27T07:21:19.493Z,99.90
2022-09-27T07:23:48.682Z,99.90
2022-09-27T07:26:17.545Z,99.90
2022-09-27T07:28:46.198Z,99.90
2022-09-27T07:31:14.903Z,99.90
2022-09-27T07:33:44.636Z,99.90
2022-09-27T07:36:14.342Z,99.90
2022-09-27T07:38:43.066Z,99.90
2022-09-27T07:41:14.236Z,99.90
2022-09-27T07:43:44.946Z,99.90
2022-09-27T07:46:13.710Z,99.90
2022-09-27T07:48:42.345Z,99.90
2022-09-27T07:51:12.166Z,99.90
2022-09-27T07:53:40.792Z,99.90
2022-09-27T07:56:09.871Z,99.90
2022-09-27T07:58:38.105Z,99.90
2022-09-27T08:01:06.842Z,99.90
2022-09-27T08:03:35.203Z,99.90
2022-09-27T08:06:04.609Z,99.90
2022-09-27T08:08:34.235Z,99.90
2022-09-27T08:11:02.767Z,99.90
2022-09-27T08:13:32.275Z,99.90
2022-09-27T08:16:03.755Z,99.90
2022-09-27T08:18:32.071Z,99.90
2022-09-27T08:21:07.388Z,99.90
2022-09-27T08:23:37.156Z,99.90
2022-09-27T08:26:05.479Z,99.90
2022-09-27T08:28:33.820Z,99.90
2022-09-27T08:31:02.392Z,99.90
2022-09-27T08:33:33.459Z,99.90
2022-09-27T08:36:03.603Z,99.90
2022-09-27T08:38:31.940Z,99.90
2022-09-27T08:41:10.277Z,99.90
2022-09-27T08:43:46.486Z,99.90
2022-09-27T08:46:29.149Z,99.90
2022-09-27T08:49:07.098Z,99.90
2022-09-27T08:51:36.657Z,99.90
2022-09-27T08:54:09.558Z,99.90
2022-09-27T08:56:39.233Z,99.90
2022-09-27T08:59:14.859Z,99.90
2022-09-27T09:01:43.848Z,99.90
2022-09-27T09:04:12.976Z,99.90
2022-09-27T09:06:47.224Z,99.90
2022-09-27T09:09:31.448Z,99.90
2022-09-27T09:12:28.959Z,99.90
2022-09-27T09:15:07.058Z,99.90
2022-09-27T09:17:58.711Z,99.90
2022-09-27T09:20:44.151Z,99.90
2022-09-27T09:23:38.866Z,99.90
2022-09-27T09:26:13.587Z,99.90
2022-09-27T09:29:00.686Z,99.90
2022-09-27T09:31:39.866Z,99.90
2022-09-27T09:34:16.628Z,99.90
2022-09-27T09:36:49.005Z,99.90
2022-09-27T09:39:21.707Z,99.90
2022-09-27T09:42:10.103Z,99.90
2022-09-27T09:44:46.985Z,99.90
2022-09-27T09:47:24.299Z,99.90
2022-09-27T09:49:58.215Z,99.90
2022-09-27T09:52:40.951Z,99.90
2022-09-27T09:55:19.193Z,99.90
2022-09-27T09:57:57.561Z,99.90
2022-09-27T10:00:27.600Z,99.90
2022-09-27T10:02:57.076Z,99.90
2022-09-27T10:05:27.080Z,99.90
2022-09-27T10:08:00.115Z,99.90
2022-09-27T10:10:29.281Z,99.90
2022-09-27T10:12:58.420Z,99.90
2022-09-27T10:15:31.266Z,99.90
2022-09-27T10:18:00.973Z,99.90
2022-09-27T10:20:34.231Z,99.90
2022-09-27T10:23:08.209Z,99.90
2022-09-27T10:25:52.386Z,99.90
2022-09-27T10:28:43.498Z,99.90
2022-09-27T10:31:15.372Z,99.90
2022-09-27T10:33:55.572Z,99.90
2022-09-27T10:36:26.400Z,99.90
2022-09-27T10:38:56.312Z,99.90
2022-09-27T10:41:28.572Z,99.90
2022-09-27T10:43:57.053Z,99.90
2022-09-27T10:46:34.281Z,99.90
2022-09-27T10:49:19.236Z,99.90
2022-09-27T10:51:51.488Z,99.90
2022-09-27T10:54:22.587Z,99.90
2022-09-27T10:56:58.354Z,99.90
2022-09-27T10:59:28.220Z,99.90
2022-09-27T11:01:58.917Z,99.90
2022-09-27T11:04:32.197Z,99.90
2022-09-27T11:07:15.867Z,99.90
2022-09-27T11:09:50.153Z,99.90
2022-09-27T11:12:20.873Z,99.90
2022-09-27T11:14:57.089Z,99.90
2022-09-27T11:17:36.391Z,99.90
2022-09-27T11:20:16.662Z,99.90
2022-09-27T11:23:10.150Z,99.90
2022-09-27T11:25:46.242Z,99.90
2022-09-27T11:28:29.195Z,99.90
2022-09-27T11:31:07.283Z,99.90
2022-09-27T11:34:07.064Z,99.90
2022-09-27T11:36:43.893Z,99.90
2022-09-27T11:39:19.019Z,99.90
2022-09-27T11:42:03.620Z,99.90
2022-09-27T11:45:13.347Z,99.90
2022-09-27T11:47:53.267Z,99.90
2022-09-27T11:50:38.654Z,99.90
2022-09-27T11:53:20.643Z,99.90
2022-09-27T11:55:59.400Z,99.90
2022-09-27T11:58:35.793Z,99.90
2022-09-27T12:01:11.748Z,99.90
2022-09-27T12:04:05.407Z,99.90
2022-09-27T12:06:45.845Z,99.90
2022-09-27T12:09:19.679Z,99.90
2022-09-27T12:11:51.455Z,99.90
2022-09-27T12:14:26.990Z,99.90
2022-09-27T12:16:57.306Z,99.90
2022-09-27T12:19:30.468Z,99.90
2022-09-27T12:22:06.141Z,99.90
2022-09-27T12:24:35.712Z,99.90
2022-09-27T12:27:10.045Z,99.90
2022-09-27T12:29:41.913Z,99.90
2022-09-27T12:32:16.008Z,99.90
2022-09-27T12:34:52.833Z,99.90
2022-09-27T12:37:28.218Z,99.90
2022-09-27T12:40:01.713Z,99.90
2022-09-27T12:42:38.096Z,99.90
2022-09-27T12:45:07.700Z,99.90
2022-09-27T12:47:52.251Z,99.90
2022-09-27T12:50:31.105Z,99.90
2022-09-27T12:53:06.820Z,99.90
2022-09-27T12:56:03.795Z,99.90
2022-09-27T12:58:54.519Z,99.90
2022-09-27T13:01:36.722Z,99.90
2022-09-27T13:04:22.687Z,99.90
2022-09-27T13:07:11.097Z,99.90
2022-09-27T13:10:13.928Z,99.90
2022-09-27T13:12:49.583Z,99.90
2022-09-27T13:15:26.237Z,99.90
2022-09-27T13:17:56.613Z,99.90
2022-09-27T13:20:49.477Z,99.90
2022-09-27T13:24:03.743Z,99.90
2022-09-27T13:26:48.587Z,99.90
2022-09-27T13:29:29.303Z,99.90
2022-09-27T13:32:15.657Z,99.90
2022-09-27T13:34:45.292Z,99.90
2022-09-27T13:37:51.865Z,99.90
2022-09-27T13:40:38.176Z,99.90
2022-09-27T13:43:37.564Z,99.90
2022-09-27T13:46:09.703Z,99.90
2022-09-27T13:48:50.091Z,99.90
2022-09-27T13:51:35.488Z,99.90
2022-09-27T13:54:10.065Z,99.90
2022-09-27T13:56:54.084Z,99.90
2022-09-27T13:59:31.314Z,99.90
2022-09-27T14:02:07.397Z,99.90
2022-09-27T14:04:42.415Z,99.90
2022-09-27T14:07:17.932Z,99.90
2022-09-27T14:09:48.871Z,99.90
2022-09-27T14:12:20.557Z,99.90
2022-09-27T14:14:51.690Z,99.80
2022-09-27T14:17:20.289Z,99.80
2022-09-27T14:19:49.449Z,99.70
2022-09-27T14:22:20.684Z,99.60
2022-09-27T14:24:51.100Z,99.70
2022-09-27T14:27:21.436Z,99.60
2022-09-27T14:29:53.375Z,99.30
2022-09-27T14:32:23.513Z,99.40
2022-09-27T14:35:30.924Z,99.30
2022-09-27T14:38:15.843Z,99.30
2022-09-27T14:40:59.808Z,99.30
2022-09-27T14:43:29.288Z,99.50
2022-09-27T14:46:02.880Z,99.50
2022-09-27T14:48:33.157Z,99.40
2022-09-27T14:51:06.128Z,99.40
2022-09-27T14:53:37.429Z,99.20
2022-09-27T14:56:08.388Z,99.00
2022-09-27T14:58:47.295Z,99.00
2022-09-27T15:01:20.285Z,98.90
2022-09-27T15:03:49.999Z,98.80
2022-09-27T15:06:20.167Z,99.00
2022-09-27T15:08:50.426Z,99.20
2022-09-27T15:11:19.637Z,99.30
2022-09-27T15:13:51.293Z,99.20
2022-09-27T15:16:26.938Z,99.20
2022-09-27T15:19:03.822Z,99.20
2022-09-27T15:21:34.113Z,99.20
2022-09-27T15:24:03.408Z,99.10
2022-09-27T15:26:38.960Z,99.20
2022-09-27T15:29:07.831Z,99.30
2022-09-27T15:31:38.148Z,99.40
2022-09-27T15:34:07.110Z,99.40
2022-09-27T15:36:53.997Z,99.50
2022-09-27T15:39:29.277Z,99.70
2022-09-27T15:42:09.181Z,99.90
2022-09-27T15:44:46.569Z,99.90
2022-09-27T15:47:48.620Z,99.90
2022-09-27T15:50:36.612Z,99.90
2022-09-27T15:53:06.857Z,99.90
2022-09-27T15:55:37.909Z,99.90
2022-09-27T15:58:08.338Z,99.90
2022-09-27T16:00:37.197Z,99.90
2022-09-27T16:03:06.957Z,99.90
2022-09-27T16:05:35.235Z,99.90
2022-09-27T16:08:03.619Z,99.90
2022-09-27T16:10:37.915Z,99.90
2022-09-27T16:13:06.489Z,99.90
2022-09-27T16:15:34.954Z,99.90
2022-09-27T16:18:03.230Z,99.90
2022-09-27T16:20:32.944Z,99.90
2022-09-27T16:23:01.267Z,99.90
2022-09-27T16:25:29.702Z,99.90
2022-09-27T16:28:00.176Z,99.90
2022-09-27T16:30:29.975Z,99.90
2022-09-27T16:32:59.546Z,99.90
2022-09-27T16:35:29.060Z,99.90
2022-09-27T16:37:59.210Z,99.90
2022-09-27T16:40:28.301Z,99.90
2022-09-27T16:42:56.667Z,99.90
2022-09-27T16:45:33.585Z,99.90
2022-09-27T16:48:02.489Z,99.90
2022-09-27T16:50:48.805Z,99.90
2022-09-27T16:53:18.632Z,99.90
2022-09-27T16:55:47.080Z,99.90
2022-09-27T16:58:15.682Z,99.90
2022-09-27T17:00:44.293Z,99.90
2022-09-27T17:03:12.697Z,99.90
2022-09-27T17:05:40.916Z,99.90
2022-09-27T17:08:09.258Z,99.90
2022-09-27T17:10:45.235Z,99.90
2022-09-27T17:13:13.583Z,99.90
2022-09-27T17:15:42.322Z,99.90
2022-09-27T17:18:12.131Z,99.90
2022-09-27T17:20:40.396Z,99.90
2022-09-27T17:23:08.671Z,99.90
2022-09-27T17:25:36.947Z,99.90
2022-09-27T17:28:06.620Z,99.90
2022-09-27T17:30:35.493Z,99.90
2022-09-27T17:33:04.410Z,99.90
2022-09-27T17:35:32.850Z,99.90
2022-09-27T17:38:01.265Z,99.90
2022-09-27T17:40:29.555Z,99.90
2022-09-27T17:42:58.220Z,99.90
2022-09-27T17:45:28.003Z,99.90
2022-09-27T17:48:13.847Z,99.90
2022-09-27T17:50:42.237Z,99.90
2022-09-27T17:53:10.666Z,99.90
2022-09-27T17:55:38.924Z,99.90
2022-09-27T17:58:07.463Z,99.90
2022-09-27T18:00:38.498Z,99.90
2022-09-27T18:03:07.360Z,99.90
2022-09-27T18:05:37.450Z,99.90
2022-09-27T18:08:06.026Z,99.90
2022-09-27T18:10:35.578Z,99.90
2022-09-27T18:13:05.771Z,99.90
2022-09-27T18:15:37.409Z,99.90
2022-09-27T18:18:07.197Z,99.90
2022-09-27T18:20:35.572Z,99.90
2022-09-27T18:23:03.792Z,99.90
2022-09-27T18:25:32.111Z,99.90
2022-09-27T18:28:00.363Z,99.90
2022-09-27T18:30:28.649Z,99.90
2022-09-27T18:32:58.154Z,99.90
2022-09-27T18:35:29.109Z,99.90
2022-09-27T18:37:57.451Z,99.90
2022-09-27T18:40:44.838Z,99.90
2022-09-27T18:43:14.310Z,99.90
2022-09-27T18:45:42.609Z,99.90
2022-09-27T18:48:11.046Z,99.90
2022-09-27T18:50:40.817Z,99.90
2022-09-27T18:53:09.543Z,99.90
2022-09-27T18:55:39.967Z,99.90
2022-09-27T18:58:08.451Z,99.90
2022-09-27T19:00:37.842Z,99.90
2022-09-27T19:03:06.273Z,99.90
2022-09-27T19:05:34.706Z,99.90
2022-09-27T19:08:04.532Z,99.90
2022-09-27T19:10:34.878Z,99.90
2022-09-27T19:13:03.185Z,99.90
2022-09-27T19:15:31.551Z,99.90
2022-09-27T19:18:00.241Z,99.90
2022-09-27T19:20:29.715Z,99.90
2022-09-27T19:22:58.136Z,99.90
2022-09-27T19:25:28.100Z,99.90
2022-09-27T19:27:56.438Z,99.90
2022-09-27T19:30:24.697Z,99.90
2022-09-27T19:32:52.986Z,99.90
2022-09-27T19:35:21.872Z,99.90
2022-09-27T19:37:50.176Z,99.90
2022-09-27T19:40:18.682Z,99.90
2022-09-27T19:42:52.529Z,99.90
2022-09-27T19:45:21.029Z,99.90
2022-09-27T19:47:49.354Z,99.90
2022-09-27T19:50:17.776Z,99.90
2022-09-27T19:52:46.940Z,99.90
2022-09-27T19:55:15.334Z,99.90
2022-09-27T19:57:43.775Z,99.90
2022-09-27T20:00:14.137Z,99.90
2022-09-27T20:02:43.436Z,99.90
2022-09-27T20:05:11.783Z,99.90
2022-09-27T20:07:40.078Z,99.90
2022-09-27T20:10:09.591Z,99.90
2022-09-27T20:12:37.847Z,99.90
2022-09-27T20:15:07.190Z,99.90
2022-09-27T20:17:36.839Z,99.90
2022-09-27T20:20:05.602Z,99.90
2022-09-27T20:22:33.854Z,99.90
2022-09-27T20:25:02.610Z,99.90
2022-09-27T20:27:30.850Z,99.90
2022-09-27T20:29:59.178Z,99.90
2022-09-27T20:32:28.465Z,99.90
2022-09-27T20:34:58.633Z,99.90
2022-09-27T20:37:26.972Z,99.90
2022-09-27T20:39:55.600Z,99.90
2022-09-27T20:42:23.902Z,99.90
2022-09-27T20:44:54.517Z,99.90
2022-09-27T20:47:23.199Z,99.90
2022-09-27T20:49:51.600Z,99.90
2022-09-27T20:52:21.229Z,99.90
2022-09-27T20:54:49.588Z,99.90
2022-09-27T20:57:27.747Z,99.90
2022-09-27T21:00:03.789Z,99.90
2022-09-27T21:02:32.123Z,99.90
2022-09-27T21:05:00.418Z,99.90
2022-09-27T21:07:30.835Z,99.90
2022-09-27T21:09:59.206Z,99.90
2022-09-27T21:12:29.994Z,99.90
2022-09-27T21:14:58.411Z,99.90
2022-09-27T21:17:26.803Z,99.90
2022-09-27T21:19:55.208Z,99.90
2022-09-27T21:22:23.572Z,99.90
2022-09-27T21:24:53.877Z,99.90
2022-09-27T21:27:22.191Z,99.90
2022-09-27T21:29:50.530Z,99.90
2022-09-27T21:32:18.772Z,99.90
2022-09-27T21:34:47.036Z,99.90
2022-09-27T21:37:15.356Z,99.90
2022-09-27T21:39:43.664Z,99.90
2022-09-27T21:42:13.335Z,99.90
2022-09-27T21:44:41.591Z,99.90
2022-09-27T21:47:09.975Z,99.90
2022-09-27T21:49:38.305Z,99.90
2022-09-27T21:52:06.566Z,99.90
2022-09-27T21:54:34.795Z,99.90
2022-09-27T21:57:03.155Z,99.90
2022-09-27T21:59:32.794Z,99.90
2022-09-27T22:02:01.140Z,99.90
2022-09-27T22:04:29.612Z,99.90
2022-09-27T22:06:58.360Z,99.90
2022-09-27T22:09:26.606Z,99.90
2022-09-27T22:11:55.065Z,99.90
2022-09-27T22:14:23.486Z,99.90
2022-09-27T22:16:53.166Z,99.90
2022-09-27T22:19:21.465Z,99.90
2022-09-27T22:21:49.806Z,99.90
2022-09-27T22:24:19.624Z,99.90
2022-09-27T22:26:49.529Z,99.90
2022-09-27T22:29:18.424Z,99.90
2022-09-27T22:31:47.019Z,99.90
2022-09-27T22:34:19.016Z,99.90
2022-09-27T22:36:47.678Z,99.90
2022-09-27T22:39:16.179Z,99.90
2022-09-27T22:41:44.792Z,99.90
2022-09-27T22:44:13.149Z,99.90
2022-09-27T22:46:41.687Z,99.90
2022-09-27T22:49:10.217Z,99.90
2022-09-27T22:51:39.925Z,99.90
2022-09-27T22:54:08.757Z,99.90
2022-09-27T22:56:38.299Z,99.90
2022-09-27T22:59:06.796Z,99.90
2022-09-27T23:01:35.764Z,99.90
2022-09-27T23:04:04.333Z,99.90
2022-09-27T23:06:33.585Z,99.90
2022-09-27T23:09:03.614Z,99.90
2022-09-27T23:11:32.042Z,99.90
2022-09-27T23:14:00.758Z,99.90
2022-09-27T23:16:29.183Z,99.90
2022-09-27T23:18:58.471Z,99.90
2022-09-27T23:21:28.841Z,99.90
2022-09-27T23:23:59.750Z,99.90
2022-09-27T23:26:30.194Z,99.90
2022-09-27T23:29:00.170Z,99.90
2022-09-27T23:31:30.246Z,99.90
2022-09-27T23:34:00.113Z,99.90
2022-09-27T23:36:28.995Z,99.90
2022-09-27T23:39:00.307Z,99.90
2022-09-27T23:41:30.381Z,99.90
2022-09-27T23:43:58.877Z,99.90
2022-09-27T23:46:27.317Z,99.90
2022-09-27T23:48:58.878Z,99.90
2022-09-27T23:51:27.262Z,99.90
2022-09-27T23:53:57.197Z,99.90
2022-09-27T23:56:25.720Z,99.90
2022-09-27T23:58:55.539Z,99.90
